sensor_id;sensor_type;location;lat;lon;timestamp;P1;durP1;ratioP1;P2;durP2;ratioP2
817;SDS011;391;51.052;6.954;2023-01-15T00:02:02;0.70;;;0.40;;
817;SDS011;391;51.052;6.954;2023-01-15T00:04:07;0.70;;;0.50;;
817;SDS011;391;51.052;6.954;2023-01-15T00:06:11;0.70;;;0.40;;
817;SDS011;391;51.052;6.954;2023-01-15T00:08:14;0.70;;;0.40;;
817;SDS011;391;51.052;6.954;2023-01-15T00:10:18;0.70;;;0.40;;
817;SDS011;391;51.052;6.954;2023-01-15T00:12:21;0.70;;;0.40;;
817;SDS011;391;51.052;6.954;2023-01-15T00:14:24;0.70;;;0.40;;
817;SDS011;391;51.052;6.954;2023-01-15T00:16:28;0.70;;;0.40;;
817;SDS011;391;51.052;6.954;2023-01-15T00:18:32;0.70;;;0.40;;
817;SDS011;391;51.052;6.954;2023-01-15T00:20:37;0.70;;;0.40;;
817;SDS011;391;51.052;6.954;2023-01-15T00:22:40;0.70;;;0.40;;
817;SDS011;391;51.052;6.954;2023-01-15T00:24:43;0.70;;;0.40;;
817;SDS011;391;51.052;6.954;2023-01-15T00:27:05;0.70;;;0.40;;
817;SDS011;391;51.052;6.954;2023-01-15T00:29:43;0.70;;;0.40;;
817;SDS011;391;51.052;6.954;2023-01-15T00:31:50;0.70;;;0.40;;
817;SDS011;391;51.052;6.954;2023-01-15T00:33:55;0.70;;;0.40;;
817;SDS011;391;51.052;6.954;2023-01-15T00:36:00;0.70;;;0.40;;
817;SDS011;391;51.052;6.954;2023-01-15T00:38:03;0.70;;;0.40;;
817;SDS011;391;51.052;6.954;2023-01-15T00:40:07;0.70;;;0.40;;
817;SDS011;391;51.052;6.954;2023-01-15T00:42:12;0.70;;;0.40;;
817;SDS011;391;51.052;6.954;2023-01-15T00:44:17;0.70;;;0.40;;
817;SDS011;391;51.052;6.954;2023-01-15T00:46:20;0.70;;;0.40;;
817;SDS011;391;51.052;6.954;2023-01-15T00:48:24;0.70;;;0.40;;
817;SDS011;391;51.052;6.954;2023-01-15T00:50:27;0.70;;;0.40;;
817;SDS011;391;51.052;6.954;2023-01-15T00:52:33;0.70;;;0.40;;
817;SDS011;391;51.052;6.954;2023-01-15T00:54:36;0.70;;;0.50;;
817;SDS011;391;51.052;6.954;2023-01-15T00:56:40;0.70;;;0.40;;
817;SDS011;391;51.052;6.954;2023-01-15T00:58:43;0.70;;;0.40;;
817;SDS011;391;51.052;6.954;2023-01-15T01:00:51;0.70;;;0.40;;
817;SDS011;391;51.052;6.954;2023-01-15T01:02:55;0.70;;;0.40;;
817;SDS011;391;51.052;6.954;2023-01-15T01:04:59;0.70;;;0.40;;
817;SDS011;391;51.052;6.954;2023-01-15T01:07:04;0.70;;;0.40;;
817;SDS011;391;51.052;6.954;2023-01-15T01:09:10;0.70;;;0.40;;
817;SDS011;391;51.052;6.954;2023-01-15T01:11:15;0.70;;;0.40;;
817;SDS011;391;51.052;6.954;2023-01-15T01:13:20;0.70;;;0.40;;
817;SDS011;391;51.052;6.954;2023-01-15T01:15:23;0.70;;;0.40;;
817;SDS011;391;51.052;6.954;2023-01-15T01:17:27;0.70;;;0.40;;
817;SDS011;391;51.052;6.954;2023-01-15T01:19:30;0.70;;;0.40;;
817;SDS011;391;51.052;6.954;2023-01-15T01:21:35;0.70;;;0.40;;
817;SDS011;391;51.052;6.954;2023-01-15T01:23:39;0.70;;;0.40;;
817;SDS011;391;51.052;6.954;2023-01-15T01:25:44;0.70;;;0.40;;
817;SDS011;391;51.052;6.954;2023-01-15T01:27:49;0.70;;;0.40;;
817;SDS011;391;51.052;6.954;2023-01-15T01:29:52;0.70;;;0.40;;
817;SDS011;391;51.052;6.954;2023-01-15T01:31:55;0.70;;;0.40;;
817;SDS011;391;51.052;6.954;2023-01-15T01:33:58;0.70;;;0.40;;
817;SDS011;391;51.052;6.954;2023-01-15T01:36:02;0.70;;;0.40;;
817;SDS011;391;51.052;6.954;2023-01-15T01:38:06;0.70;;;0.40;;
817;SDS011;391;51.052;6.954;2023-01-15T01:40:10;0.70;;;0.40;;
817;SDS011;391;51.052;6.954;2023-01-15T01:42:15;0.70;;;0.40;;
817;SDS011;391;51.052;6.954;2023-01-15T01:47:04;0.70;;;0.40;;
817;SDS011;391;51.052;6.954;2023-01-15T01:49:10;0.70;;;0.40;;
817;SDS011;391;51.052;6.954;2023-01-15T01:51:15;0.70;;;0.40;;
817;SDS011;391;51.052;6.954;2023-01-15T01:53:21;0.70;;;0.40;;
817;SDS011;391;51.052;6.954;2023-01-15T01:55:26;0.70;;;0.40;;
817;SDS011;391;51.052;6.954;2023-01-15T01:57:32;0.70;;;0.40;;
817;SDS011;391;51.052;6.954;2023-01-15T01:59:36;0.70;;;0.40;;
817;SDS011;391;51.052;6.954;2023-01-15T02:01:40;0.70;;;0.40;;
817;SDS011;391;51.052;6.954;2023-01-15T02:03:45;0.70;;;0.40;;
817;SDS011;391;51.052;6.954;2023-01-15T02:05:49;0.70;;;0.40;;
817;SDS011;391;51.052;6.954;2023-01-15T02:07:56;0.70;;;0.40;;
817;SDS011;391;51.052;6.954;2023-01-15T02:10:01;0.70;;;0.40;;
817;SDS011;391;51.052;6.954;2023-01-15T02:12:15;0.70;;;0.40;;
817;SDS011;391;51.052;6.954;2023-01-15T02:14:27;0.70;;;0.50;;
817;SDS011;391;51.052;6.954;2023-01-15T02:16:39;0.70;;;0.40;;
817;SDS011;391;51.052;6.954;2023-01-15T02:18:50;0.70;;;0.40;;
817;SDS011;391;51.052;6.954;2023-01-15T02:21:03;0.70;;;0.40;;
817;SDS011;391;51.052;6.954;2023-01-15T02:23:19;0.70;;;0.40;;
817;SDS011;391;51.052;6.954;2023-01-15T02:25:32;0.70;;;0.40;;
817;SDS011;391;51.052;6.954;2023-01-15T02:27:55;0.70;;;0.40;;
817;SDS011;391;51.052;6.954;2023-01-15T02:30:05;0.70;;;0.40;;
817;SDS011;391;51.052;6.954;2023-01-15T02:32:28;0.70;;;0.40;;
817;SDS011;391;51.052;6.954;2023-01-15T02:34:38;0.70;;;0.40;;
817;SDS011;391;51.052;6.954;2023-01-15T02:36:49;0.70;;;0.40;;
817;SDS011;391;51.052;6.954;2023-01-15T02:39:01;0.70;;;0.40;;
817;SDS011;391;51.052;6.954;2023-01-15T02:41:07;0.70;;;0.40;;
817;SDS011;391;51.052;6.954;2023-01-15T02:43:19;0.70;;;0.40;;
817;SDS011;391;51.052;6.954;2023-01-15T02:45:26;0.90;;;0.70;;
817;SDS011;391;51.052;6.954;2023-01-15T02:47:38;0.70;;;0.40;;
817;SDS011;391;51.052;6.954;2023-01-15T02:49:45;0.70;;;0.40;;
817;SDS011;391;51.052;6.954;2023-01-15T02:51:52;0.70;;;0.40;;
817;SDS011;391;51.052;6.954;2023-01-15T02:54:00;0.70;;;0.40;;
817;SDS011;391;51.052;6.954;2023-01-15T02:56:10;0.70;;;0.40;;
817;SDS011;391;51.052;6.954;2023-01-15T02:58:24;0.70;;;0.40;;
817;SDS011;391;51.052;6.954;2023-01-15T03:00:36;0.70;;;0.40;;
817;SDS011;391;51.052;6.954;2023-01-15T03:02:43;0.70;;;0.40;;
817;SDS011;391;51.052;6.954;2023-01-15T03:04:52;0.70;;;0.40;;
817;SDS011;391;51.052;6.954;2023-01-15T03:07:04;0.70;;;0.40;;
817;SDS011;391;51.052;6.954;2023-01-15T03:09:12;0.70;;;0.40;;
817;SDS011;391;51.052;6.954;2023-01-15T03:11:18;0.80;;;0.77;;
817;SDS011;391;51.052;6.954;2023-01-15T03:13:34;0.70;;;0.40;;
817;SDS011;391;51.052;6.954;2023-01-15T03:15:50;0.70;;;0.40;;
817;SDS011;391;51.052;6.954;2023-01-15T03:18:16;0.70;;;0.40;;
817;SDS011;391;51.052;6.954;2023-01-15T03:20:26;0.70;;;0.40;;
817;SDS011;391;51.052;6.954;2023-01-15T03:22:31;0.70;;;0.40;;
817;SDS011;391;51.052;6.954;2023-01-15T03:24:38;0.70;;;0.40;;
817;SDS011;391;51.052;6.954;2023-01-15T03:26:47;0.70;;;0.40;;
817;SDS011;391;51.052;6.954;2023-01-15T03:28:52;0.70;;;0.40;;
817;SDS011;391;51.052;6.954;2023-01-15T03:30:57;0.70;;;0.40;;
817;SDS011;391;51.052;6.954;2023-01-15T03:33:01;0.70;;;0.40;;
817;SDS011;391;51.052;6.954;2023-01-15T03:35:36;0.70;;;0.40;;
817;SDS011;391;51.052;6.954;2023-01-15T03:37:53;0.80;;;0.50;;
817;SDS011;391;51.052;6.954;2023-01-15T03:39:58;0.70;;;0.40;;
817;SDS011;391;51.052;6.954;2023-01-15T03:42:05;0.70;;;0.40;;
817;SDS011;391;51.052;6.954;2023-01-15T03:44:22;0.70;;;0.40;;
817;SDS011;391;51.052;6.954;2023-01-15T03:49:06;0.70;;;0.40;;
817;SDS011;391;51.052;6.954;2023-01-15T03:51:21;0.70;;;0.40;;
817;SDS011;391;51.052;6.954;2023-01-15T03:53:29;0.70;;;0.40;;
817;SDS011;391;51.052;6.954;2023-01-15T03:55:38;0.70;;;0.40;;
817;SDS011;391;51.052;6.954;2023-01-15T03:57:49;0.70;;;0.40;;
817;SDS011;391;51.052;6.954;2023-01-15T03:59:57;0.70;;;0.40;;
817;SDS011;391;51.052;6.954;2023-01-15T04:02:16;0.70;;;0.40;;
817;SDS011;391;51.052;6.954;2023-01-15T04:04:23;0.70;;;0.40;;
817;SDS011;391;51.052;6.954;2023-01-15T04:06:31;0.70;;;0.40;;
817;SDS011;391;51.052;6.954;2023-01-15T04:08:37;0.70;;;0.40;;
817;SDS011;391;51.052;6.954;2023-01-15T04:10:50;0.70;;;0.40;;
817;SDS011;391;51.052;6.954;2023-01-15T04:12:56;0.70;;;0.40;;
817;SDS011;391;51.052;6.954;2023-01-15T04:15:00;0.70;;;0.40;;
817;SDS011;391;51.052;6.954;2023-01-15T04:17:03;0.70;;;0.40;;
817;SDS011;391;51.052;6.954;2023-01-15T04:19:07;0.70;;;0.40;;
817;SDS011;391;51.052;6.954;2023-01-15T04:21:13;0.70;;;0.40;;
817;SDS011;391;51.052;6.954;2023-01-15T04:23:18;0.70;;;0.40;;
817;SDS011;391;51.052;6.954;2023-01-15T04:25:22;0.70;;;0.40;;
817;SDS011;391;51.052;6.954;2023-01-15T04:27:26;1.33;;;1.17;;
817;SDS011;391;51.052;6.954;2023-01-15T04:29:29;0.70;;;0.40;;
817;SDS011;391;51.052;6.954;2023-01-15T04:31:33;0.70;;;0.40;;
817;SDS011;391;51.052;6.954;2023-01-15T04:33:37;0.70;;;0.40;;
817;SDS011;391;51.052;6.954;2023-01-15T04:35:41;0.70;;;0.40;;
817;SDS011;391;51.052;6.954;2023-01-15T04:37:45;0.70;;;0.40;;
817;SDS011;391;51.052;6.954;2023-01-15T04:39:50;0.70;;;0.40;;
817;SDS011;391;51.052;6.954;2023-01-15T04:41:53;0.70;;;0.40;;
817;SDS011;391;51.052;6.954;2023-01-15T04:44:14;0.70;;;0.40;;
817;SDS011;391;51.052;6.954;2023-01-15T04:46:19;0.70;;;0.40;;
817;SDS011;391;51.052;6.954;2023-01-15T04:48:23;0.70;;;0.40;;
817;SDS011;391;51.052;6.954;2023-01-15T04:50:27;0.70;;;0.40;;
817;SDS011;391;51.052;6.954;2023-01-15T04:52:30;0.70;;;0.40;;
817;SDS011;391;51.052;6.954;2023-01-15T04:54:34;0.70;;;0.40;;
817;SDS011;391;51.052;6.954;2023-01-15T04:56:39;0.70;;;0.40;;
817;SDS011;391;51.052;6.954;2023-01-15T04:58:43;0.70;;;0.40;;
817;SDS011;391;51.052;6.954;2023-01-15T05:00:47;0.70;;;0.40;;
817;SDS011;391;51.052;6.954;2023-01-15T05:02:50;0.70;;;0.40;;
817;SDS011;391;51.052;6.954;2023-01-15T05:04:54;0.70;;;0.40;;
817;SDS011;391;51.052;6.954;2023-01-15T05:06:57;0.70;;;0.40;;
817;SDS011;391;51.052;6.954;2023-01-15T05:09:01;0.70;;;0.40;;
817;SDS011;391;51.052;6.954;2023-01-15T05:11:06;0.70;;;0.40;;
817;SDS011;391;51.052;6.954;2023-01-15T05:13:11;0.70;;;0.40;;
817;SDS011;391;51.052;6.954;2023-01-15T05:15:14;0.70;;;0.40;;
817;SDS011;391;51.052;6.954;2023-01-15T05:17:18;0.70;;;0.40;;
817;SDS011;391;51.052;6.954;2023-01-15T05:19:21;0.70;;;0.40;;
817;SDS011;391;51.052;6.954;2023-01-15T05:21:27;0.70;;;0.40;;
817;SDS011;391;51.052;6.954;2023-01-15T05:23:33;0.70;;;0.40;;
817;SDS011;391;51.052;6.954;2023-01-15T05:25:37;0.70;;;0.40;;
817;SDS011;391;51.052;6.954;2023-01-15T05:27:40;0.73;;;0.57;;
817;SDS011;391;51.052;6.954;2023-01-15T05:29:45;0.70;;;0.40;;
817;SDS011;391;51.052;6.954;2023-01-15T05:31:49;0.70;;;0.40;;
817;SDS011;391;51.052;6.954;2023-01-15T05:33:53;0.70;;;0.40;;
817;SDS011;391;51.052;6.954;2023-01-15T05:35:59;0.70;;;0.40;;
817;SDS011;391;51.052;6.954;2023-01-15T05:38:03;0.70;;;0.40;;
817;SDS011;391;51.052;6.954;2023-01-15T05:40:08;0.70;;;0.40;;
817;SDS011;391;51.052;6.954;2023-01-15T05:42:12;0.70;;;0.40;;
817;SDS011;391;51.052;6.954;2023-01-15T05:44:16;0.70;;;0.40;;
817;SDS011;391;51.052;6.954;2023-01-15T05:46:23;0.70;;;0.40;;
817;SDS011;391;51.052;6.954;2023-01-15T05:48:26;0.70;;;0.40;;
817;SDS011;391;51.052;6.954;2023-01-15T05:50:30;0.70;;;0.40;;
817;SDS011;391;51.052;6.954;2023-01-15T05:52:33;0.70;;;0.40;;
817;SDS011;391;51.052;6.954;2023-01-15T05:54:36;0.70;;;0.40;;
817;SDS011;391;51.052;6.954;2023-01-15T05:56:40;0.70;;;0.40;;
817;SDS011;391;51.052;6.954;2023-01-15T05:58:44;0.70;;;0.40;;
817;SDS011;391;51.052;6.954;2023-01-15T06:00:47;0.70;;;0.40;;
817;SDS011;391;51.052;6.954;2023-01-15T06:02:52;0.70;;;0.40;;
817;SDS011;391;51.052;6.954;2023-01-15T06:04:55;0.70;;;0.40;;
817;SDS011;391;51.052;6.954;2023-01-15T06:06:59;0.70;;;0.40;;
817;SDS011;391;51.052;6.954;2023-01-15T06:09:02;0.70;;;0.40;;
817;SDS011;391;51.052;6.954;2023-01-15T06:11:06;0.70;;;0.40;;
817;SDS011;391;51.052;6.954;2023-01-15T06:13:10;0.70;;;0.40;;
817;SDS011;391;51.052;6.954;2023-01-15T06:15:13;0.70;;;0.40;;
817;SDS011;391;51.052;6.954;2023-01-15T06:17:17;0.70;;;0.40;;
817;SDS011;391;51.052;6.954;2023-01-15T06:19:21;0.70;;;0.50;;
817;SDS011;391;51.052;6.954;2023-01-15T06:21:25;0.70;;;0.40;;
817;SDS011;391;51.052;6.954;2023-01-15T06:23:28;0.70;;;0.40;;
817;SDS011;391;51.052;6.954;2023-01-15T06:25:31;0.70;;;0.40;;
817;SDS011;391;51.052;6.954;2023-01-15T06:27:36;0.70;;;0.40;;
817;SDS011;391;51.052;6.954;2023-01-15T06:29:39;0.70;;;0.40;;
817;SDS011;391;51.052;6.954;2023-01-15T06:31:43;0.70;;;0.40;;
817;SDS011;391;51.052;6.954;2023-01-15T06:33:47;0.70;;;0.40;;
817;SDS011;391;51.052;6.954;2023-01-15T06:35:52;0.70;;;0.40;;
817;SDS011;391;51.052;6.954;2023-01-15T06:37:55;0.70;;;0.40;;
817;SDS011;391;51.052;6.954;2023-01-15T06:39:58;0.70;;;0.40;;
817;SDS011;391;51.052;6.954;2023-01-15T06:42:02;0.70;;;0.40;;
817;SDS011;391;51.052;6.954;2023-01-15T06:44:23;0.70;;;0.40;;
817;SDS011;391;51.052;6.954;2023-01-15T06:46:44;0.70;;;0.40;;
817;SDS011;391;51.052;6.954;2023-01-15T06:49:07;0.70;;;0.40;;
817;SDS011;391;51.052;6.954;2023-01-15T06:51:11;0.70;;;0.40;;
817;SDS011;391;51.052;6.954;2023-01-15T06:53:16;0.70;;;0.40;;
817;SDS011;391;51.052;6.954;2023-01-15T06:55:19;0.70;;;0.40;;
817;SDS011;391;51.052;6.954;2023-01-15T06:57:24;0.70;;;0.40;;
817;SDS011;391;51.052;6.954;2023-01-15T06:59:28;0.70;;;0.40;;
817;SDS011;391;51.052;6.954;2023-01-15T07:01:31;0.70;;;0.40;;
817;SDS011;391;51.052;6.954;2023-01-15T07:03:35;0.70;;;0.40;;
817;SDS011;391;51.052;6.954;2023-01-15T07:05:39;0.70;;;0.40;;
817;SDS011;391;51.052;6.954;2023-01-15T07:07:44;0.70;;;0.40;;
817;SDS011;391;51.052;6.954;2023-01-15T07:09:47;0.70;;;0.40;;
817;SDS011;391;51.052;6.954;2023-01-15T07:11:51;0.70;;;0.40;;
817;SDS011;391;51.052;6.954;2023-01-15T07:13:55;0.70;;;0.40;;
817;SDS011;391;51.052;6.954;2023-01-15T07:16:06;0.70;;;0.40;;
817;SDS011;391;51.052;6.954;2023-01-15T07:18:28;0.70;;;0.40;;
817;SDS011;391;51.052;6.954;2023-01-15T07:20:32;0.70;;;0.40;;
817;SDS011;391;51.052;6.954;2023-01-15T07:22:36;0.70;;;0.40;;
817;SDS011;391;51.052;6.954;2023-01-15T07:24:43;0.70;;;0.40;;
817;SDS011;391;51.052;6.954;2023-01-15T07:26:47;0.70;;;0.40;;
817;SDS011;391;51.052;6.954;2023-01-15T07:28:50;0.70;;;0.40;;
817;SDS011;391;51.052;6.954;2023-01-15T07:30:56;0.70;;;0.40;;
817;SDS011;391;51.052;6.954;2023-01-15T07:33:00;0.70;;;0.40;;
817;SDS011;391;51.052;6.954;2023-01-15T07:35:03;0.70;;;0.40;;
817;SDS011;391;51.052;6.954;2023-01-15T07:37:07;0.70;;;0.40;;
817;SDS011;391;51.052;6.954;2023-01-15T07:39:11;0.70;;;0.40;;
817;SDS011;391;51.052;6.954;2023-01-15T07:41:16;0.70;;;0.40;;
817;SDS011;391;51.052;6.954;2023-01-15T07:43:37;0.70;;;0.40;;
817;SDS011;391;51.052;6.954;2023-01-15T07:45:59;0.70;;;0.40;;
817;SDS011;391;51.052;6.954;2023-01-15T07:48:20;0.70;;;0.40;;
817;SDS011;391;51.052;6.954;2023-01-15T07:50:41;0.70;;;0.40;;
817;SDS011;391;51.052;6.954;2023-01-15T07:52:44;0.70;;;0.40;;
817;SDS011;391;51.052;6.954;2023-01-15T07:54:48;0.70;;;0.40;;
817;SDS011;391;51.052;6.954;2023-01-15T07:56:54;1.07;;;0.77;;
817;SDS011;391;51.052;6.954;2023-01-15T07:58:58;0.70;;;0.40;;
817;SDS011;391;51.052;6.954;2023-01-15T08:01:01;0.70;;;0.40;;
817;SDS011;391;51.052;6.954;2023-01-15T08:03:05;0.70;;;0.40;;
817;SDS011;391;51.052;6.954;2023-01-15T08:05:10;0.70;;;0.40;;
817;SDS011;391;51.052;6.954;2023-01-15T08:07:14;0.70;;;0.40;;
817;SDS011;391;51.052;6.954;2023-01-15T08:09:17;0.70;;;0.40;;
817;SDS011;391;51.052;6.954;2023-01-15T08:11:21;0.70;;;0.40;;
817;SDS011;391;51.052;6.954;2023-01-15T08:13:43;0.70;;;0.40;;
817;SDS011;391;51.052;6.954;2023-01-15T08:16:04;0.70;;;0.40;;
817;SDS011;391;51.052;6.954;2023-01-15T08:18:08;0.70;;;0.40;;
817;SDS011;391;51.052;6.954;2023-01-15T08:20:13;0.70;;;0.40;;
817;SDS011;391;51.052;6.954;2023-01-15T08:22:18;0.70;;;0.40;;
817;SDS011;391;51.052;6.954;2023-01-15T08:24:21;0.70;;;0.40;;
817;SDS011;391;51.052;6.954;2023-01-15T08:26:25;0.70;;;0.40;;
817;SDS011;391;51.052;6.954;2023-01-15T08:28:28;0.70;;;0.40;;
817;SDS011;391;51.052;6.954;2023-01-15T08:30:33;0.70;;;0.40;;
817;SDS011;391;51.052;6.954;2023-01-15T08:32:37;0.70;;;0.50;;
817;SDS011;391;51.052;6.954;2023-01-15T08:34:40;0.70;;;0.40;;
817;SDS011;391;51.052;6.954;2023-01-15T08:36:43;0.70;;;0.40;;
817;SDS011;391;51.052;6.954;2023-01-15T08:38:47;0.70;;;0.40;;
817;SDS011;391;51.052;6.954;2023-01-15T08:40:51;0.70;;;0.40;;
817;SDS011;391;51.052;6.954;2023-01-15T08:43:01;0.70;;;0.40;;
817;SDS011;391;51.052;6.954;2023-01-15T08:45:05;0.70;;;0.50;;
817;SDS011;391;51.052;6.954;2023-01-15T08:47:11;0.70;;;0.40;;
817;SDS011;391;51.052;6.954;2023-01-15T08:49:15;0.70;;;0.40;;
817;SDS011;391;51.052;6.954;2023-01-15T08:51:18;0.70;;;0.40;;
817;SDS011;391;51.052;6.954;2023-01-15T08:53:22;0.70;;;0.40;;
817;SDS011;391;51.052;6.954;2023-01-15T08:55:25;0.70;;;0.40;;
817;SDS011;391;51.052;6.954;2023-01-15T08:57:29;0.70;;;0.40;;
817;SDS011;391;51.052;6.954;2023-01-15T08:59:32;0.70;;;0.40;;
817;SDS011;391;51.052;6.954;2023-01-15T09:01:35;0.70;;;0.40;;
817;SDS011;391;51.052;6.954;2023-01-15T09:03:41;0.70;;;0.40;;
817;SDS011;391;51.052;6.954;2023-01-15T09:05:44;0.70;;;0.40;;
817;SDS011;391;51.052;6.954;2023-01-15T09:07:48;0.70;;;0.40;;
817;SDS011;391;51.052;6.954;2023-01-15T09:09:51;0.70;;;0.40;;
817;SDS011;391;51.052;6.954;2023-01-15T09:11:55;0.70;;;0.40;;
817;SDS011;391;51.052;6.954;2023-01-15T09:13:58;0.70;;;0.40;;
817;SDS011;391;51.052;6.954;2023-01-15T09:16:02;0.70;;;0.40;;
817;SDS011;391;51.052;6.954;2023-01-15T09:18:07;0.70;;;0.40;;
817;SDS011;391;51.052;6.954;2023-01-15T09:20:14;0.70;;;0.40;;
817;SDS011;391;51.052;6.954;2023-01-15T09:22:18;0.70;;;0.50;;
817;SDS011;391;51.052;6.954;2023-01-15T09:24:21;0.70;;;0.40;;
817;SDS011;391;51.052;6.954;2023-01-15T09:26:27;0.70;;;0.40;;
817;SDS011;391;51.052;6.954;2023-01-15T09:28:32;0.70;;;0.40;;
817;SDS011;391;51.052;6.954;2023-01-15T09:30:36;0.70;;;0.40;;
817;SDS011;391;51.052;6.954;2023-01-15T09:32:40;0.70;;;0.40;;
817;SDS011;391;51.052;6.954;2023-01-15T09:34:43;0.70;;;0.40;;
817;SDS011;391;51.052;6.954;2023-01-15T09:36:48;0.70;;;0.40;;
817;SDS011;391;51.052;6.954;2023-01-15T09:38:52;0.70;;;0.40;;
817;SDS011;391;51.052;6.954;2023-01-15T09:40:56;0.70;;;0.40;;
817;SDS011;391;51.052;6.954;2023-01-15T09:43:05;0.70;;;0.40;;
817;SDS011;391;51.052;6.954;2023-01-15T09:45:17;0.70;;;0.40;;
817;SDS011;391;51.052;6.954;2023-01-15T09:47:29;0.70;;;0.40;;
817;SDS011;391;51.052;6.954;2023-01-15T09:49:39;0.70;;;0.40;;
817;SDS011;391;51.052;6.954;2023-01-15T09:51:56;0.70;;;0.40;;
817;SDS011;391;51.052;6.954;2023-01-15T09:54:17;0.70;;;0.40;;
817;SDS011;391;51.052;6.954;2023-01-15T09:56:34;0.70;;;0.40;;
817;SDS011;391;51.052;6.954;2023-01-15T09:58:40;0.70;;;0.40;;
817;SDS011;391;51.052;6.954;2023-01-15T10:00:45;0.70;;;0.40;;
817;SDS011;391;51.052;6.954;2023-01-15T10:02:52;0.70;;;0.40;;
817;SDS011;391;51.052;6.954;2023-01-15T10:05:03;0.70;;;0.40;;
817;SDS011;391;51.052;6.954;2023-01-15T10:07:15;0.70;;;0.50;;
817;SDS011;391;51.052;6.954;2023-01-15T10:09:26;0.80;;;0.70;;
817;SDS011;391;51.052;6.954;2023-01-15T10:11:37;0.70;;;0.40;;
817;SDS011;391;51.052;6.954;2023-01-15T10:14:04;0.70;;;0.40;;
817;SDS011;391;51.052;6.954;2023-01-15T10:16:12;0.70;;;0.40;;
817;SDS011;391;51.052;6.954;2023-01-15T10:18:23;0.70;;;0.40;;
817;SDS011;391;51.052;6.954;2023-01-15T10:20:32;0.70;;;0.50;;
817;SDS011;391;51.052;6.954;2023-01-15T10:22:52;0.70;;;0.40;;
817;SDS011;391;51.052;6.954;2023-01-15T10:25:11;1.37;;;1.27;;
817;SDS011;391;51.052;6.954;2023-01-15T10:27:18;0.70;;;0.40;;
817;SDS011;391;51.052;6.954;2023-01-15T10:29:25;0.70;;;0.40;;
817;SDS011;391;51.052;6.954;2023-01-15T10:31:44;0.70;;;0.40;;
817;SDS011;391;51.052;6.954;2023-01-15T10:33:59;0.70;;;0.40;;
817;SDS011;391;51.052;6.954;2023-01-15T10:36:16;0.70;;;0.40;;
817;SDS011;391;51.052;6.954;2023-01-15T10:38:27;0.70;;;0.50;;
817;SDS011;391;51.052;6.954;2023-01-15T10:40:58;7.90;;;1.77;;
817;SDS011;391;51.052;6.954;2023-01-15T10:43:14;0.70;;;0.40;;
817;SDS011;391;51.052;6.954;2023-01-15T10:45:23;1.10;;;1.10;;
817;SDS011;391;51.052;6.954;2023-01-15T10:47:29;0.70;;;0.40;;
817;SDS011;391;51.052;6.954;2023-01-15T10:49:35;0.70;;;0.40;;
817;SDS011;391;51.052;6.954;2023-01-15T10:51:41;0.70;;;0.50;;
817;SDS011;391;51.052;6.954;2023-01-15T10:53:49;0.70;;;0.40;;
817;SDS011;391;51.052;6.954;2023-01-15T10:55:58;0.70;;;0.50;;
817;SDS011;391;51.052;6.954;2023-01-15T10:58:07;0.70;;;0.40;;
817;SDS011;391;51.052;6.954;2023-01-15T11:00:16;1.13;;;0.83;;
817;SDS011;391;51.052;6.954;2023-01-15T11:02:23;0.70;;;0.40;;
817;SDS011;391;51.052;6.954;2023-01-15T11:04:32;0.70;;;0.40;;
817;SDS011;391;51.052;6.954;2023-01-15T11:06:35;0.70;;;0.40;;
817;SDS011;391;51.052;6.954;2023-01-15T11:08:39;0.70;;;0.50;;
817;SDS011;391;51.052;6.954;2023-01-15T11:11:12;0.70;;;0.50;;
817;SDS011;391;51.052;6.954;2023-01-15T11:13:20;0.70;;;0.40;;
817;SDS011;391;51.052;6.954;2023-01-15T11:15:43;0.70;;;0.40;;
817;SDS011;391;51.052;6.954;2023-01-15T11:18:07;0.70;;;0.40;;
817;SDS011;391;51.052;6.954;2023-01-15T11:20:34;0.70;;;0.40;;
817;SDS011;391;51.052;6.954;2023-01-15T11:22:45;0.70;;;0.40;;
817;SDS011;391;51.052;6.954;2023-01-15T11:24:49;0.70;;;0.40;;
817;SDS011;391;51.052;6.954;2023-01-15T11:28:55;13.33;;;5.40;;
817;SDS011;391;51.052;6.954;2023-01-15T11:31:00;161.90;;;150.17;;
817;SDS011;391;51.052;6.954;2023-01-15T11:33:05;476.20;;;308.65;;
817;SDS011;391;51.052;6.954;2023-01-15T11:35:23;468.92;;;291.10;;
817;SDS011;391;51.052;6.954;2023-01-15T11:37:27;187.93;;;170.37;;
817;SDS011;391;51.052;6.954;2023-01-15T11:39:31;105.53;;;94.40;;
817;SDS011;391;51.052;6.954;2023-01-15T11:41:35;79.73;;;73.97;;
817;SDS011;391;51.052;6.954;2023-01-15T11:43:52;8.17;;;2.73;;
817;SDS011;391;51.052;6.954;2023-01-15T11:46:26;12.73;;;5.47;;
817;SDS011;391;51.052;6.954;2023-01-15T11:48:48;99.93;;;91.07;;
817;SDS011;391;51.052;6.954;2023-01-15T11:51:09;4.90;;;1.57;;
817;SDS011;391;51.052;6.954;2023-01-15T11:53:17;8.60;;;5.43;;
817;SDS011;391;51.052;6.954;2023-01-15T11:55:24;5.80;;;3.60;;
817;SDS011;391;51.052;6.954;2023-01-15T11:57:30;8.93;;;3.10;;
817;SDS011;391;51.052;6.954;2023-01-15T11:59:36;2.93;;;2.20;;
817;SDS011;391;51.052;6.954;2023-01-15T12:01:46;6.67;;;1.97;;
817;SDS011;391;51.052;6.954;2023-01-15T12:03:55;2.00;;;1.80;;
817;SDS011;391;51.052;6.954;2023-01-15T12:06:01;2.90;;;1.70;;
817;SDS011;391;51.052;6.954;2023-01-15T12:08:11;1.80;;;1.33;;
817;SDS011;391;51.052;6.954;2023-01-15T12:10:24;2.90;;;2.30;;
817;SDS011;391;51.052;6.954;2023-01-15T12:12:51;13.20;;;5.23;;
817;SDS011;391;51.052;6.954;2023-01-15T12:20:23;2.37;;;1.10;;
817;SDS011;391;51.052;6.954;2023-01-15T12:22:33;9.30;;;1.60;;
817;SDS011;391;51.052;6.954;2023-01-15T12:24:52;1.57;;;0.97;;
817;SDS011;391;51.052;6.954;2023-01-15T12:27:31;2.10;;;1.07;;
817;SDS011;391;51.052;6.954;2023-01-15T12:29:48;6.53;;;1.30;;
817;SDS011;391;51.052;6.954;2023-01-15T12:31:56;3.87;;;2.47;;
817;SDS011;391;51.052;6.954;2023-01-15T12:34:06;36.87;;;20.87;;
817;SDS011;391;51.052;6.954;2023-01-15T12:36:18;3.73;;;2.20;;
817;SDS011;391;51.052;6.954;2023-01-15T12:38:36;1.23;;;0.80;;
817;SDS011;391;51.052;6.954;2023-01-15T12:40:47;1.40;;;1.03;;
817;SDS011;391;51.052;6.954;2023-01-15T12:42:54;1.00;;;0.80;;
817;SDS011;391;51.052;6.954;2023-01-15T12:45:17;2.23;;;1.13;;
817;SDS011;391;51.052;6.954;2023-01-15T12:47:25;8.40;;;2.07;;
817;SDS011;391;51.052;6.954;2023-01-15T12:49:33;1.97;;;1.00;;
817;SDS011;391;51.052;6.954;2023-01-15T12:51:46;1.00;;;0.80;;
817;SDS011;391;51.052;6.954;2023-01-15T12:53:52;2.20;;;1.03;;
817;SDS011;391;51.052;6.954;2023-01-15T12:56:04;3.40;;;1.07;;
817;SDS011;391;51.052;6.954;2023-01-15T12:58:19;2.10;;;0.97;;
817;SDS011;391;51.052;6.954;2023-01-15T13:00:33;2.93;;;1.00;;
817;SDS011;391;51.052;6.954;2023-01-15T13:02:41;2.37;;;1.20;;
817;SDS011;391;51.052;6.954;2023-01-15T13:05:02;1.60;;;1.10;;
817;SDS011;391;51.052;6.954;2023-01-15T13:07:17;2.80;;;1.00;;
817;SDS011;391;51.052;6.954;2023-01-15T13:09:29;3.00;;;0.97;;
817;SDS011;391;51.052;6.954;2023-01-15T13:11:39;6.77;;;1.43;;
817;SDS011;391;51.052;6.954;2023-01-15T13:13:43;2.10;;;1.03;;
817;SDS011;391;51.052;6.954;2023-01-15T13:16:03;1.90;;;1.07;;
817;SDS011;391;51.052;6.954;2023-01-15T13:18:15;3.33;;;1.30;;
817;SDS011;391;51.052;6.954;2023-01-15T13:20:31;1.30;;;0.80;;
817;SDS011;391;51.052;6.954;2023-01-15T13:22:45;2.40;;;0.90;;
817;SDS011;391;51.052;6.954;2023-01-15T13:25:06;1.63;;;0.90;;
817;SDS011;391;51.052;6.954;2023-01-15T13:27:37;2.03;;;0.93;;
817;SDS011;391;51.052;6.954;2023-01-15T13:29:57;7.50;;;1.57;;
817;SDS011;391;51.052;6.954;2023-01-15T13:32:11;3.37;;;1.33;;
817;SDS011;391;51.052;6.954;2023-01-15T13:34:21;1.77;;;1.30;;
817;SDS011;391;51.052;6.954;2023-01-15T13:36:31;2.70;;;0.93;;
817;SDS011;391;51.052;6.954;2023-01-15T13:38:39;3.27;;;1.00;;
817;SDS011;391;51.052;6.954;2023-01-15T13:40:46;2.13;;;1.33;;
817;SDS011;391;51.052;6.954;2023-01-15T13:42:53;1.23;;;0.77;;
817;SDS011;391;51.052;6.954;2023-01-15T13:44:58;2.03;;;0.90;;
817;SDS011;391;51.052;6.954;2023-01-15T13:47:04;2.23;;;1.10;;
817;SDS011;391;51.052;6.954;2023-01-15T13:49:15;1.77;;;1.00;;
817;SDS011;391;51.052;6.954;2023-01-15T13:51:24;1.73;;;1.20;;
817;SDS011;391;51.052;6.954;2023-01-15T13:53:31;5.13;;;1.17;;
817;SDS011;391;51.052;6.954;2023-01-15T13:55:39;2.53;;;1.87;;